createdAt,value
2018-04-26T00:00:32.409Z,14.42
2018-04-26T00:01:32.573Z,14.46
2018-04-26T00:02:32.732Z,14.33
2018-04-26T00:03:53.890Z,14.20
2018-04-26T00:04:33.052Z,14.18
2018-04-26T00:05:33.217Z,14.21
2018-04-26T00:06:33.377Z,14.17
2018-04-26T00:07:33.537Z,14.21
2018-04-26T00:08:33.709Z,14.29
2018-04-26T00:09:33.873Z,14.28
2018-04-26T00:10:34.036Z,14.37
2018-04-26T00:11:34.199Z,14.33
2018-04-26T00:12:34.367Z,14.35
2018-04-26T00:13:34.533Z,14.29
2018-04-26T00:14:34.703Z,14.37
2018-04-26T00:15:34.867Z,14.24
2018-04-26T00:16:35.029Z,14.22
2018-04-26T00:17:35.202Z,14.20
2018-04-26T00:18:35.368Z,14.14
2018-04-26T00:19:35.530Z,14.20
2018-04-26T00:20:35.706Z,14.15
2018-04-26T00:21:35.884Z,14.09
2018-04-26T00:22:36.037Z,14.14
2018-04-26T00:23:36.207Z,14.12
2018-04-26T00:24:36.372Z,14.12
2018-04-26T00:25:36.534Z,14.10
2018-04-26T00:26:36.708Z,14.07
2018-04-26T00:27:36.875Z,14.02
2018-04-26T00:28:37.045Z,13.92
2018-04-26T00:29:37.206Z,13.95
2018-04-26T00:30:37.366Z,13.99
2018-04-26T00:31:37.537Z,13.97
2018-04-26T00:32:37.697Z,14.00
2018-04-26T00:33:37.871Z,13.92
2018-04-26T00:34:38.037Z,13.92
2018-04-26T00:35:38.209Z,13.78
2018-04-26T00:36:38.375Z,13.73
2018-04-26T00:37:38.543Z,13.75
2018-04-26T00:38:38.704Z,13.69
2018-04-26T00:39:38.870Z,13.70
2018-04-26T00:40:39.032Z,13.79
2018-04-26T00:41:39.206Z,13.87
2018-04-26T00:42:39.381Z,13.87
2018-04-26T00:43:39.543Z,13.84
2018-04-26T00:44:39.711Z,13.87
2018-04-26T00:45:39.876Z,13.82
2018-04-26T00:46:40.043Z,13.78
2018-04-26T00:47:40.206Z,13.64
2018-04-26T00:48:40.456Z,13.67
2018-04-26T00:49:40.551Z,13.75
2018-04-26T00:50:40.718Z,13.64
2018-04-26T00:51:40.879Z,13.70
2018-04-26T00:52:41.051Z,13.59
2018-04-26T00:53:41.221Z,13.67
2018-04-26T00:54:41.383Z,13.64
2018-04-26T00:55:41.548Z,13.73
2018-04-26T00:56:41.712Z,13.63
2018-04-26T00:57:41.885Z,13.67
2018-04-26T00:58:42.038Z,13.67
2018-04-26T00:59:42.211Z,13.77
2018-04-26T01:00:42.374Z,13.75
2018-04-26T01:01:42.536Z,13.63
2018-04-26T01:02:42.706Z,13.60
2018-04-26T01:03:42.867Z,13.77
2018-04-26T01:04:43.039Z,13.70
2018-04-26T01:05:43.207Z,13.55
2018-04-26T01:06:43.370Z,13.46
2018-04-26T01:07:43.536Z,13.55
2018-04-26T01:08:43.699Z,13.59
2018-04-26T01:09:43.867Z,13.64
2018-04-26T01:10:44.033Z,13.57
2018-04-26T01:11:44.189Z,13.63
2018-04-26T01:12:44.360Z,13.64
2018-04-26T01:13:44.519Z,13.48
2018-04-26T01:14:44.686Z,13.46
2018-04-26T01:15:44.928Z,13.46
2018-04-26T01:16:45.022Z,13.49
2018-04-26T01:17:45.191Z,13.33
2018-04-26T01:18:45.356Z,13.39
2018-04-26T01:19:45.527Z,13.38
2018-04-26T01:20:45.692Z,13.26
2018-04-26T01:21:45.857Z,13.36
2018-04-26T01:22:46.028Z,13.25
2018-04-26T01:23:46.193Z,13.19
2018-04-26T01:24:46.366Z,13.11
2018-04-26T01:25:46.522Z,13.14
2018-04-26T01:26:46.692Z,13.26
2018-04-26T01:27:46.859Z,13.29
2018-04-26T01:28:47.016Z,13.28
2018-04-26T01:29:47.188Z,13.15
2018-04-26T01:30:47.360Z,13.11
2018-04-26T01:31:47.522Z,13.23
2018-04-26T01:32:47.688Z,13.12
2018-04-26T01:33:47.854Z,13.19
2018-04-26T01:34:48.020Z,13.10
2018-04-26T01:35:48.195Z,13.08
2018-04-26T01:36:48.361Z,13.05
2018-04-26T01:37:48.525Z,13.17
2018-04-26T01:38:48.692Z,13.07
2018-04-26T01:39:48.855Z,13.11
2018-04-26T01:40:49.027Z,12.97
2018-04-26T01:41:49.198Z,13.01
2018-04-26T01:42:49.351Z,13.04
2018-04-26T01:43:49.517Z,12.92
2018-04-26T01:44:49.678Z,12.89
2018-04-26T01:45:49.844Z,12.78
2018-04-26T01:46:50.019Z,12.57
2018-04-26T01:47:50.188Z,12.64
2018-04-26T01:48:50.358Z,12.59
2018-04-26T01:49:50.522Z,12.53
2018-04-26T01:50:50.688Z,12.56
2018-04-26T01:51:50.854Z,12.59
2018-04-26T01:52:51.021Z,12.54
2018-04-26T01:53:51.182Z,12.52
2018-04-26T01:54:51.349Z,12.47
2018-04-26T01:55:51.511Z,12.56
2018-04-26T01:56:51.679Z,12.71
2018-04-26T01:57:51.846Z,12.57
2018-04-26T01:58:52.007Z,12.67
2018-04-26T01:59:52.174Z,12.70
2018-04-26T02:00:52.340Z,12.64
2018-04-26T02:01:52.508Z,12.68
2018-04-26T02:02:52.677Z,12.67
2018-04-26T02:03:52.848Z,12.52
2018-04-26T02:04:53.011Z,12.60
2018-04-26T02:05:53.178Z,12.56
2018-04-26T02:06:53.345Z,12.59
2018-04-26T02:07:53.515Z,12.54
2018-04-26T02:08:53.674Z,12.35
2018-04-26T02:09:53.840Z,12.38
2018-04-26T02:10:54.001Z,12.46
2018-04-26T02:11:54.173Z,12.46
2018-04-26T02:12:54.329Z,12.46
2018-04-26T02:13:54.526Z,12.37
2018-04-26T02:14:54.689Z,12.35
2018-04-26T02:15:54.857Z,12.34
2018-04-26T02:16:55.021Z,12.23
2018-04-26T02:17:55.187Z,12.14
2018-04-26T02:18:55.360Z,12.24
2018-04-26T02:19:55.527Z,12.14
2018-04-26T02:20:55.687Z,12.21
2018-04-26T02:21:55.861Z,12.16
2018-04-26T02:22:56.029Z,12.20
2018-04-26T02:23:56.183Z,12.17
2018-04-26T02:24:56.347Z,12.20
2018-04-26T02:25:56.510Z,12.17
2018-04-26T02:26:56.676Z,12.12
2018-04-26T02:27:56.831Z,11.94
2018-04-26T02:28:56.993Z,12.05
2018-04-26T02:29:57.164Z,12.05
2018-04-26T02:30:57.325Z,12.13
2018-04-26T02:31:57.490Z,12.19
2018-04-26T02:32:57.659Z,12.28
2018-04-26T02:33:57.828Z,12.28
2018-04-26T02:34:57.996Z,12.23
2018-04-26T02:35:58.185Z,12.35
2018-04-26T02:36:58.317Z,12.27
2018-04-26T02:37:58.485Z,12.34
2018-04-26T02:38:58.650Z,12.21
2018-04-26T02:39:58.809Z,12.17
2018-04-26T02:40:58.976Z,12.19
2018-04-26T02:41:59.139Z,12.19
2018-04-26T02:42:59.308Z,12.21
2018-04-26T02:43:59.470Z,12.28
2018-04-26T02:44:59.632Z,12.09
2018-04-26T02:45:59.802Z,11.99
2018-04-26T02:46:59.965Z,12.01
2018-04-26T02:48:00.124Z,12.02
2018-04-26T02:49:00.297Z,11.90
2018-04-26T02:50:00.460Z,11.64
2018-04-26T02:51:00.627Z,11.73
2018-04-26T02:52:00.797Z,11.58
2018-04-26T02:53:00.958Z,11.58
2018-04-26T02:54:01.119Z,11.47
2018-04-26T02:55:01.284Z,11.35
2018-04-26T02:56:01.449Z,11.43
2018-04-26T02:57:01.619Z,11.44
2018-04-26T02:58:01.783Z,11.46
2018-04-26T02:59:01.951Z,11.43
2018-04-26T03:00:02.122Z,11.46
2018-04-26T03:01:02.288Z,11.51
2018-04-26T03:02:02.451Z,11.54
2018-04-26T03:03:02.614Z,11.47
2018-04-26T03:04:02.780Z,11.28
2018-04-26T03:05:02.941Z,11.42
2018-04-26T03:06:03.101Z,11.46
2018-04-26T03:07:03.265Z,11.40
2018-04-26T03:08:03.438Z,11.57
2018-04-26T03:09:03.595Z,11.52
2018-04-26T03:10:03.765Z,11.42
2018-04-26T03:11:03.929Z,11.46
2018-04-26T03:12:04.088Z,11.42
2018-04-26T03:13:04.255Z,11.25
2018-04-26T03:14:04.422Z,11.11
2018-04-26T03:15:04.589Z,11.19
2018-04-26T03:16:04.755Z,11.27
2018-04-26T03:17:04.915Z,11.25
2018-04-26T03:18:05.088Z,11.06
2018-04-26T03:19:05.249Z,11.04
2018-04-26T03:20:05.411Z,11.09
2018-04-26T03:21:05.579Z,11.06
2018-04-26T03:22:05.743Z,11.17
2018-04-26T03:23:05.901Z,11.25
2018-04-26T03:24:06.062Z,11.32
2018-04-26T03:25:06.223Z,11.25
2018-04-26T03:26:06.393Z,11.24
2018-04-26T03:27:06.553Z,11.14
2018-04-26T03:28:06.709Z,11.06
2018-04-26T03:29:06.885Z,11.04
2018-04-26T03:30:07.049Z,11.14
2018-04-26T03:31:07.295Z,11.14
2018-04-26T03:32:07.381Z,11.17
2018-04-26T03:33:07.548Z,11.21
2018-04-26T03:34:07.715Z,11.07
2018-04-26T03:35:07.880Z,11.18
2018-04-26T03:36:08.043Z,11.24
2018-04-26T03:37:08.208Z,11.28
2018-04-26T03:38:08.373Z,11.27
2018-04-26T03:39:08.530Z,11.32
2018-04-26T03:40:08.694Z,11.25
2018-04-26T03:41:08.860Z,11.43
2018-04-26T03:42:09.030Z,11.44
2018-04-26T03:43:09.202Z,11.40
2018-04-26T03:44:09.365Z,11.39
2018-04-26T03:45:09.536Z,11.22
2018-04-26T03:46:09.695Z,11.25
2018-04-26T03:47:09.855Z,11.11
2018-04-26T03:48:10.023Z,11.09
2018-04-26T03:49:10.188Z,11.15
2018-04-26T03:50:10.359Z,11.27
2018-04-26T03:51:10.528Z,11.22
2018-04-26T03:52:10.694Z,11.37
2018-04-26T03:53:10.865Z,11.25
2018-04-26T03:54:11.034Z,11.32
2018-04-26T03:55:11.194Z,11.25
2018-04-26T03:56:11.355Z,11.21
2018-04-26T03:57:11.520Z,11.29
2018-04-26T03:58:11.680Z,11.35
2018-04-26T03:59:11.845Z,11.24
2018-04-26T04:00:12.005Z,11.14
2018-04-26T04:01:12.169Z,11.27
2018-04-26T04:02:12.335Z,11.32
2018-04-26T04:03:12.499Z,11.27
2018-04-26T04:04:12.666Z,11.28
2018-04-26T04:05:12.822Z,11.19
2018-04-26T04:06:12.985Z,11.15
2018-04-26T04:07:13.139Z,11.04
2018-04-26T04:08:13.298Z,11.10
2018-04-26T04:09:13.465Z,11.25
2018-04-26T04:10:13.636Z,11.24
2018-04-26T04:11:13.797Z,11.33
2018-04-26T04:12:13.958Z,11.17
2018-04-26T04:13:14.130Z,11.22
2018-04-26T04:14:14.295Z,11.14
2018-04-26T04:15:14.476Z,11.15
2018-04-26T04:16:14.637Z,11.27
2018-04-26T04:17:14.802Z,11.15
2018-04-26T04:18:14.967Z,11.22
2018-04-26T04:19:15.134Z,11.27
2018-04-26T04:20:15.299Z,11.18
2018-04-26T04:21:15.467Z,11.29
2018-04-26T04:22:15.629Z,11.35
2018-04-26T04:23:15.795Z,11.27
2018-04-26T04:24:15.957Z,11.22
2018-04-26T04:25:16.123Z,11.07
2018-04-26T04:26:16.287Z,11.33
2018-04-26T04:27:16.455Z,11.19
2018-04-26T04:28:16.611Z,11.25
2018-04-26T04:29:16.776Z,11.22
2018-04-26T04:30:16.942Z,11.32
2018-04-26T04:31:17.106Z,11.43
2018-04-26T04:32:17.269Z,11.39
2018-04-26T04:33:17.439Z,11.39
2018-04-26T04:34:17.595Z,11.47
2018-04-26T04:35:17.837Z,11.42
2018-04-26T04:36:17.933Z,11.42
2018-04-26T04:37:18.095Z,11.35
2018-04-26T04:38:18.261Z,11.21
2018-04-26T04:39:18.429Z,11.22
2018-04-26T04:40:18.589Z,11.25
2018-04-26T04:41:18.755Z,11.27
2018-04-26T04:42:18.913Z,11.35
2018-04-26T04:43:19.083Z,11.46
2018-04-26T04:44:19.246Z,11.54
2018-04-26T04:45:19.489Z,11.60
2018-04-26T04:46:19.576Z,11.55
2018-04-26T04:47:19.738Z,11.52
2018-04-26T04:48:19.900Z,11.60
2018-04-26T04:49:20.072Z,11.60
2018-04-26T04:50:20.231Z,11.69
2018-04-26T04:51:20.396Z,11.80
2018-04-26T04:52:20.561Z,11.76
2018-04-26T04:53:20.728Z,11.65
2018-04-26T04:54:20.882Z,11.57
2018-04-26T04:55:21.042Z,11.67
2018-04-26T04:56:21.204Z,11.80
2018-04-26T04:57:21.364Z,11.69
2018-04-26T04:58:21.526Z,11.69
2018-04-26T04:59:21.695Z,11.76
2018-04-26T05:00:21.863Z,11.65
2018-04-26T05:01:22.026Z,11.75
2018-04-26T05:02:22.189Z,11.79
2018-04-26T05:03:22.356Z,11.90
2018-04-26T05:04:22.513Z,11.98
2018-04-26T05:05:22.680Z,12.01
2018-04-26T05:06:22.840Z,12.10
2018-04-26T05:07:23.056Z,12.17
2018-04-26T05:08:23.170Z,12.28
2018-04-26T05:09:23.335Z,12.20
2018-04-26T05:10:23.508Z,12.47
2018-04-26T05:11:23.668Z,12.38
2018-04-26T05:12:23.834Z,12.46
2018-04-26T05:13:23.993Z,12.52
2018-04-26T05:14:24.168Z,12.57
2018-04-26T05:15:24.335Z,12.62
2018-04-26T05:16:24.508Z,12.65
2018-04-26T05:17:24.665Z,12.60
2018-04-26T05:18:24.833Z,12.56
2018-04-26T05:19:25.034Z,12.64
2018-04-26T05:20:25.201Z,12.65
2018-04-26T05:21:25.368Z,12.62
2018-04-26T05:22:25.535Z,12.64
2018-04-26T05:23:25.702Z,12.54
2018-04-26T05:24:25.864Z,12.60
2018-04-26T05:25:26.039Z,12.60
2018-04-26T05:26:26.206Z,12.67
2018-04-26T05:27:26.369Z,12.85
2018-04-26T05:28:26.535Z,12.77
2018-04-26T05:29:26.704Z,12.71
2018-04-26T05:30:26.875Z,12.85
2018-04-26T05:31:27.045Z,12.96
2018-04-26T05:32:27.212Z,12.96
2018-04-26T05:33:27.390Z,12.92
2018-04-26T05:34:27.550Z,12.72
2018-04-26T05:35:27.721Z,12.72
2018-04-26T05:36:27.890Z,12.78
2018-04-26T05:37:28.055Z,12.75
2018-04-26T05:38:28.221Z,12.75
2018-04-26T05:39:28.385Z,12.85
2018-04-26T05:40:28.572Z,13.00
2018-04-26T05:41:28.715Z,12.93
2018-04-26T05:42:28.880Z,12.96
2018-04-26T05:43:29.043Z,12.95
2018-04-26T05:44:29.230Z,12.92
2018-04-26T05:45:29.389Z,13.03
2018-04-26T05:46:29.561Z,13.17
2018-04-26T05:47:29.725Z,13.19
2018-04-26T05:48:29.895Z,13.20
2018-04-26T05:49:30.057Z,13.33
2018-04-26T05:50:30.218Z,13.54
2018-04-26T05:51:30.386Z,13.57
2018-04-26T05:52:30.553Z,13.49
2018-04-26T05:53:30.713Z,13.54
2018-04-26T05:54:30.889Z,13.52
2018-04-26T05:55:31.046Z,13.66
2018-04-26T05:56:31.220Z,13.70
2018-04-26T05:57:31.387Z,13.62
2018-04-26T05:58:31.551Z,13.62
2018-04-26T05:59:31.721Z,13.79
2018-04-26T06:00:31.890Z,13.85
2018-04-26T06:01:32.055Z,13.95
2018-04-26T06:02:32.226Z,14.04
2018-04-26T06:03:32.483Z,13.82
2018-04-26T06:04:32.559Z,13.87
2018-04-26T06:05:32.738Z,13.95
2018-04-26T06:06:32.897Z,13.85
2018-04-26T06:07:33.068Z,13.63
2018-04-26T06:08:33.235Z,13.66
2018-04-26T06:09:33.402Z,13.77
2018-04-26T06:10:33.566Z,13.66
2018-04-26T06:11:33.738Z,13.70
2018-04-26T06:12:33.909Z,13.89
2018-04-26T06:13:34.071Z,14.03
2018-04-26T06:14:34.237Z,14.25
2018-04-26T06:15:34.401Z,14.28
2018-04-26T06:16:34.570Z,14.29
2018-04-26T06:17:34.738Z,14.10
2018-04-26T06:18:34.910Z,14.37
2018-04-26T06:19:35.078Z,14.33
2018-04-26T06:20:35.242Z,14.24
2018-04-26T06:21:35.406Z,14.33
2018-04-26T06:22:35.574Z,14.21
2018-04-26T06:23:35.741Z,14.25
2018-04-26T06:24:35.907Z,14.33
2018-04-26T06:25:36.079Z,14.42
2018-04-26T06:26:36.240Z,14.47
2018-04-26T06:27:36.405Z,14.33
2018-04-26T06:28:36.574Z,14.22
2018-04-26T06:29:36.741Z,14.32
2018-04-26T06:30:36.918Z,14.07
2018-04-26T06:31:37.083Z,14.21
2018-04-26T06:32:37.247Z,14.33
2018-04-26T06:33:37.422Z,14.57
2018-04-26T06:34:37.588Z,14.70
2018-04-26T06:35:37.757Z,14.75
2018-04-26T06:36:37.926Z,14.68
2018-04-26T06:37:38.088Z,14.52
2018-04-26T06:38:38.260Z,14.57
2018-04-26T06:41:11.054Z,14.58
2018-04-26T06:42:10.754Z,14.50
2018-04-26T06:43:10.889Z,14.51
2018-04-26T06:44:11.054Z,14.60
2018-04-26T06:45:11.221Z,14.69
2018-04-26T06:46:11.390Z,14.83
2018-04-26T06:47:11.551Z,14.91
2018-04-26T06:48:11.721Z,14.61
2018-04-26T06:49:11.894Z,14.60
2018-04-26T06:50:12.066Z,14.58
2018-04-26T06:51:12.229Z,14.45
2018-04-26T06:52:12.394Z,14.36
2018-04-26T06:53:12.558Z,14.29
2018-04-26T06:54:12.729Z,14.36
2018-04-26T06:55:12.894Z,14.24
2018-04-26T06:56:13.067Z,14.00
2018-04-26T06:57:13.237Z,14.14
2018-04-26T06:58:13.405Z,13.92
2018-04-26T06:59:13.571Z,13.97
2018-04-26T07:00:13.739Z,13.99
2018-04-26T07:01:13.911Z,13.92
2018-04-26T07:02:14.074Z,13.89
2018-04-26T07:03:14.254Z,13.81
2018-04-26T07:04:14.416Z,13.77
2018-04-26T07:05:14.581Z,13.89
2018-04-26T07:06:14.750Z,13.88
2018-04-26T07:07:14.928Z,13.88
2018-04-26T07:08:15.083Z,13.81
2018-04-26T07:09:15.253Z,13.84
2018-04-26T07:10:15.414Z,14.04
2018-04-26T07:11:15.595Z,13.77
2018-04-26T07:12:15.756Z,13.87
2018-04-26T07:13:15.923Z,13.73
2018-04-26T07:14:16.093Z,13.85
2018-04-26T07:15:16.260Z,14.10
2018-04-26T07:16:16.423Z,14.33
2018-04-26T07:17:16.588Z,14.61
2018-04-26T07:18:16.755Z,14.92
2018-04-26T07:19:16.918Z,14.91
2018-04-26T07:20:17.093Z,15.25
2018-04-26T07:21:17.251Z,15.03
2018-04-26T07:22:17.418Z,15.16
2018-04-26T07:23:17.588Z,15.10
2018-04-26T07:24:17.760Z,15.13
2018-04-26T07:25:17.923Z,15.29
2018-04-26T07:26:18.087Z,15.13
2018-04-26T07:27:18.252Z,15.39
2018-04-26T07:28:18.419Z,15.60
2018-04-26T07:29:18.590Z,15.56
2018-04-26T07:30:18.757Z,15.59
2018-04-26T07:31:18.931Z,15.64
2018-04-26T07:32:19.101Z,15.75
2018-04-26T07:33:19.261Z,15.86
2018-04-26T07:34:19.428Z,15.72
2018-04-26T07:35:19.598Z,15.87
2018-04-26T07:36:19.767Z,16.02
2018-04-26T07:38:53.563Z,15.94
2018-04-26T07:39:53.224Z,16.02
2018-04-26T07:40:53.399Z,15.74
2018-04-26T07:41:53.756Z,15.62
2018-04-26T07:42:53.935Z,15.43
2018-04-26T07:43:54.080Z,15.57
2018-04-26T07:44:54.122Z,15.44
2018-04-26T07:45:54.409Z,15.47
2018-04-26T07:46:54.658Z,15.25
2018-04-26T07:47:54.939Z,15.44
2018-04-26T07:48:55.655Z,15.38
2018-04-26T07:49:54.991Z,15.51
2018-04-26T07:50:56.149Z,15.36
2018-04-26T07:51:55.499Z,15.43
2018-04-26T07:52:55.610Z,15.53
2018-04-26T07:53:55.740Z,15.49
2018-04-26T07:54:56.030Z,15.16
2018-04-26T07:55:55.957Z,15.20
2018-04-26T07:56:55.931Z,15.20
2018-04-26T07:57:56.021Z,15.27
2018-04-26T07:58:56.186Z,15.20
2018-04-26T07:59:56.352Z,15.31
2018-04-26T08:00:56.530Z,15.43
2018-04-26T08:01:56.893Z,15.43
2018-04-26T08:02:57.120Z,15.59
2018-04-26T08:03:57.125Z,15.72
2018-04-26T08:04:57.351Z,15.74
2018-04-26T08:05:57.574Z,15.76
2018-04-26T08:06:57.591Z,15.71
2018-04-26T08:07:57.782Z,16.15
2018-04-26T08:08:58.144Z,16.00
2018-04-26T08:09:58.072Z,16.11
2018-04-26T08:10:58.276Z,16.04
2018-04-26T08:11:58.565Z,15.76
2018-04-26T08:12:58.812Z,16.02
2018-04-26T08:13:58.913Z,16.08
2018-04-26T08:14:58.900Z,16.11
2018-04-26T08:15:59.249Z,16.28
2018-04-26T08:16:59.444Z,16.43
2018-04-26T08:17:59.636Z,16.78
2018-04-26T08:18:59.667Z,16.78
2018-04-26T08:19:59.809Z,16.79
2018-04-26T08:21:00.140Z,16.33
2018-04-26T08:22:00.243Z,16.34
2018-04-26T08:23:00.304Z,15.87
2018-04-26T08:24:00.640Z,16.04
2018-04-26T08:25:00.655Z,15.59
2018-04-26T08:26:00.860Z,15.47
2018-04-26T08:27:00.922Z,15.47
2018-04-26T08:28:01.271Z,15.72
2018-04-26T08:29:01.437Z,15.74
2018-04-26T08:30:01.523Z,16.05
2018-04-26T08:31:01.640Z,16.04
2018-04-26T08:32:01.809Z,16.21
2018-04-26T08:33:01.988Z,16.07
2018-04-26T08:34:02.191Z,16.31
2018-04-26T08:35:02.199Z,16.61
2018-04-26T08:36:02.416Z,16.52
2018-04-26T08:37:02.638Z,16.25
2018-04-26T08:38:02.676Z,16.25
2018-04-26T08:39:03.643Z,16.33
2018-04-26T08:40:02.960Z,16.68
2018-04-26T08:41:03.274Z,16.67
2018-04-26T08:42:03.512Z,16.86
2018-04-26T08:43:03.738Z,17.04
2018-04-26T08:44:03.737Z,17.04
2018-04-26T08:45:04.059Z,17.56
2018-04-26T08:46:04.332Z,18.03
2018-04-26T08:47:04.317Z,18.32
2018-04-26T08:48:04.494Z,19.07
2018-04-26T08:49:04.885Z,20.03
2018-04-26T08:50:04.959Z,20.18
2018-04-26T08:51:05.230Z,20.98
2018-04-26T08:52:05.388Z,22.05
2018-04-26T08:53:05.592Z,22.91
2018-04-26T08:54:05.729Z,21.80
2018-04-26T08:55:05.805Z,21.52
2018-04-26T08:56:06.034Z,21.84
2018-04-26T08:57:06.104Z,22.39
2018-04-26T08:58:06.418Z,21.68
2018-04-26T08:59:06.589Z,22.80
2018-04-26T09:00:06.801Z,23.53
2018-04-26T09:01:06.875Z,23.88
2018-04-26T09:02:07.162Z,24.50
2018-04-26T09:03:07.212Z,24.12
2018-04-26T09:04:07.552Z,23.48
2018-04-26T09:06:40.731Z,23.70
2018-04-26T09:07:40.884Z,24.03
2018-04-26T09:08:41.054Z,24.76
2018-04-26T09:09:41.227Z,25.36
2018-04-26T09:10:41.422Z,25.52
2018-04-26T09:11:41.591Z,25.82
2018-04-26T09:12:41.764Z,25.50
2018-04-26T09:13:41.938Z,25.46
2018-04-26T09:14:42.112Z,25.08
2018-04-26T09:15:42.298Z,24.83
2018-04-26T09:16:42.464Z,25.14
2018-04-26T09:17:42.645Z,24.65
2018-04-26T09:18:42.813Z,22.88
2018-04-26T09:19:43.028Z,21.22
2018-04-26T09:20:43.193Z,20.67
2018-04-26T09:21:43.369Z,19.99
2018-04-26T09:22:43.540Z,19.37
2018-04-26T09:23:43.715Z,19.32
2018-04-26T09:24:43.889Z,18.58
2018-04-26T09:25:44.073Z,18.08
2018-04-26T09:26:44.249Z,17.99
2018-04-26T09:27:44.408Z,17.48
2018-04-26T09:28:44.588Z,19.46
2018-04-26T09:29:44.766Z,22.06
2018-04-26T09:30:44.938Z,22.37
2018-04-26T09:31:45.110Z,23.22
2018-04-26T09:32:45.284Z,22.92
2018-04-26T09:33:45.540Z,21.92
2018-04-26T09:34:45.643Z,23.20
2018-04-26T09:35:45.824Z,21.83
2018-04-26T09:36:45.996Z,22.22
2018-04-26T09:37:46.173Z,23.00
2018-04-26T09:38:46.421Z,23.50
2018-04-26T09:39:46.525Z,24.30
2018-04-26T09:40:46.692Z,25.57
2018-04-26T09:41:46.866Z,26.50
2018-04-26T09:42:47.036Z,26.06
2018-04-26T09:43:47.217Z,26.82
2018-04-26T09:44:47.388Z,24.83
2018-04-26T09:45:47.566Z,23.80
2018-04-26T09:46:47.745Z,22.21
2018-04-26T09:47:47.918Z,21.53
2018-04-26T09:48:48.095Z,21.49
2018-04-26T09:49:48.271Z,22.92
2018-04-26T09:50:48.453Z,22.18
2018-04-26T09:51:48.624Z,21.19
2018-04-26T09:52:48.815Z,20.94
2018-04-26T09:53:48.996Z,19.29
2018-04-26T09:54:49.170Z,18.81
2018-04-26T09:55:49.347Z,18.60
2018-04-26T09:56:49.523Z,17.71
2018-04-26T09:57:49.700Z,16.93
2018-04-26T09:58:49.881Z,16.00
2018-04-26T09:59:50.062Z,15.71
2018-04-26T10:00:50.241Z,15.76
2018-04-26T10:01:50.537Z,15.72
2018-04-26T10:02:50.589Z,15.78
2018-04-26T10:03:50.757Z,18.42
2018-04-26T10:04:50.934Z,20.91
2018-04-26T10:05:51.103Z,21.06
2018-04-26T10:06:51.276Z,20.32
2018-04-26T10:07:51.449Z,20.05
2018-04-26T10:08:51.645Z,19.31
2018-04-26T10:09:51.791Z,18.87
2018-04-26T10:10:51.968Z,18.82
2018-04-26T10:11:52.137Z,18.37
2018-04-26T10:12:52.308Z,17.92
2018-04-26T10:13:52.487Z,17.68
2018-04-26T10:14:52.650Z,17.36
2018-04-26T10:15:52.818Z,16.70
2018-04-26T10:16:53.002Z,16.25
2018-04-26T10:17:53.158Z,15.51
2018-04-26T10:18:53.340Z,15.17
2018-04-26T10:19:53.508Z,14.89
2018-04-26T10:20:53.678Z,14.92
2018-04-26T10:21:53.852Z,14.88
2018-04-26T10:22:54.020Z,15.29
2018-04-26T10:23:54.194Z,15.39
2018-04-26T10:24:54.361Z,15.64
2018-04-26T10:25:54.523Z,15.80
2018-04-26T10:26:54.697Z,15.75
2018-04-26T10:27:54.866Z,17.01
2018-04-26T10:28:55.039Z,17.28
2018-04-26T10:29:55.210Z,17.22
2018-04-26T10:30:55.377Z,18.15
2018-04-26T10:31:55.557Z,18.20
2018-04-26T10:32:55.727Z,17.74
2018-04-26T10:33:55.896Z,17.23
2018-04-26T10:34:56.069Z,16.68
2018-04-26T10:35:56.230Z,18.62
2018-04-26T10:36:56.401Z,18.65
2018-04-26T10:37:57.197Z,19.25
2018-04-26T10:38:56.747Z,18.25
2018-04-26T10:39:56.925Z,18.21
2018-04-26T10:40:57.088Z,18.66
2018-04-26T10:41:57.266Z,18.69
2018-04-26T10:42:57.439Z,18.42
2018-04-26T10:43:57.601Z,18.20
2018-04-26T10:44:57.772Z,19.62
2018-04-26T10:45:57.939Z,21.34
2018-04-26T10:46:58.109Z,21.24
2018-04-26T10:47:58.277Z,19.80
2018-04-26T10:48:58.446Z,18.48
2018-04-26T10:49:58.622Z,18.14
2018-04-26T10:50:58.788Z,17.44
2018-04-26T10:51:58.965Z,17.38
2018-04-26T10:52:59.206Z,17.04
2018-04-26T10:53:59.308Z,17.48
2018-04-26T10:54:59.480Z,17.41
2018-04-26T10:55:59.656Z,17.49
2018-04-26T10:56:59.833Z,17.22
2018-04-26T10:58:00.008Z,17.46
2018-04-26T10:59:00.175Z,17.54
2018-04-26T11:00:00.365Z,17.56
2018-04-26T11:01:00.529Z,17.62
2018-04-26T11:02:00.705Z,17.41
2018-04-26T11:03:00.891Z,17.49
2018-04-26T11:04:01.056Z,16.91
2018-04-26T11:05:01.223Z,16.94
2018-04-26T11:06:01.397Z,17.54
2018-04-26T11:07:01.570Z,18.17
2018-04-26T11:08:01.735Z,18.32
2018-04-26T11:09:01.908Z,18.33
2018-04-26T11:10:02.075Z,19.68
2018-04-26T11:11:02.250Z,21.58
2018-04-26T11:12:02.419Z,23.35
2018-04-26T11:13:02.590Z,24.40
2018-04-26T11:14:02.755Z,25.46
2018-04-26T11:15:02.934Z,26.01
2018-04-26T11:16:03.099Z,25.05
2018-04-26T11:17:03.278Z,26.28
2018-04-26T11:18:03.452Z,26.69
2018-04-26T11:19:03.623Z,26.60
2018-04-26T11:20:03.799Z,26.76
2018-04-26T11:21:03.965Z,27.02
2018-04-26T11:22:04.140Z,27.90
2018-04-26T11:23:04.314Z,28.71
2018-04-26T11:24:04.536Z,28.61
2018-04-26T11:25:04.685Z,29.23
2018-04-26T11:26:04.860Z,29.63
2018-04-26T11:27:05.036Z,30.11
2018-04-26T11:28:05.214Z,29.60
2018-04-26T11:29:05.404Z,30.19
2018-04-26T11:30:05.669Z,29.26
2018-04-26T11:31:05.918Z,29.33
2018-04-26T11:32:06.004Z,27.75
2018-04-26T11:33:06.196Z,28.49
2018-04-26T11:34:06.383Z,28.14
2018-04-26T11:35:06.563Z,26.84
2018-04-26T11:36:06.763Z,28.49
2018-04-26T11:37:06.936Z,28.95
2018-04-26T11:38:07.121Z,30.16
2018-04-26T11:39:07.307Z,29.55
2018-04-26T11:40:07.538Z,27.51
2018-04-26T11:41:07.672Z,27.65
2018-04-26T11:42:07.861Z,26.77
2018-04-26T11:43:08.054Z,27.59
2018-04-26T11:44:08.247Z,28.14
2018-04-26T11:45:08.428Z,26.28
2018-04-26T11:47:00.692Z,28.74
2018-04-26T11:48:00.882Z,29.14
2018-04-26T11:49:01.066Z,29.36
2018-04-26T11:50:01.251Z,29.27
2018-04-26T11:51:01.427Z,29.87
2018-04-26T11:52:01.612Z,29.43
2018-04-26T11:53:01.801Z,30.35
2018-04-26T11:54:01.981Z,27.75
2018-04-26T11:55:02.257Z,26.62
2018-04-26T11:56:02.289Z,28.51
2018-04-26T11:57:02.477Z,26.88
2018-04-26T11:58:02.663Z,27.51
2018-04-26T11:59:02.851Z,26.33
2018-04-26T12:00:03.035Z,25.06
2018-04-26T12:01:03.216Z,23.84
2018-04-26T12:02:03.433Z,23.40
2018-04-26T12:03:03.619Z,23.22
2018-04-26T12:04:03.873Z,22.76
2018-04-26T12:05:03.987Z,22.73
2018-04-26T12:06:04.172Z,22.47
2018-04-26T12:07:04.355Z,22.39
2018-04-26T12:08:04.532Z,21.74
2018-04-26T12:09:04.712Z,21.17
2018-04-26T12:10:04.897Z,20.11
2018-04-26T12:11:05.073Z,19.61
2018-04-26T12:12:05.247Z,19.06
2018-04-26T12:13:05.421Z,17.84
2018-04-26T12:14:05.602Z,17.66
2018-04-26T12:15:05.777Z,17.86
2018-04-26T12:16:05.945Z,18.81
2018-04-26T12:17:06.131Z,20.87
2018-04-26T12:18:06.304Z,22.21
2018-04-26T12:19:06.481Z,22.86
2018-04-26T12:20:06.653Z,22.67
2018-04-26T12:21:06.836Z,21.77
2018-04-26T12:22:07.014Z,21.84
2018-04-26T12:23:07.183Z,22.54
2018-04-26T12:24:07.383Z,22.00
2018-04-26T12:25:07.537Z,21.84
2018-04-26T12:26:07.710Z,21.32
2018-04-26T12:27:07.886Z,20.72
2018-04-26T12:28:08.059Z,20.02
2018-04-26T12:29:08.235Z,19.92
2018-04-26T12:30:08.412Z,20.32
2018-04-26T12:31:08.602Z,20.80
2018-04-26T12:32:08.779Z,20.52
2018-04-26T12:33:08.954Z,20.94
2018-04-26T12:34:09.131Z,20.51
2018-04-26T12:35:09.319Z,20.84
2018-04-26T12:36:09.482Z,20.58
2018-04-26T12:37:09.654Z,20.58
2018-04-26T12:38:09.833Z,20.33
2018-04-26T12:39:10.007Z,20.05
2018-04-26T12:40:10.180Z,19.59
2018-04-26T12:41:10.355Z,19.23
2018-04-26T12:42:10.658Z,19.29
2018-04-26T12:43:10.703Z,19.23
2018-04-26T12:44:10.879Z,19.36
2018-04-26T12:45:11.052Z,19.39
2018-04-26T12:46:11.225Z,19.28
2018-04-26T12:47:11.447Z,19.32
2018-04-26T12:48:11.591Z,19.32
2018-04-26T12:49:11.764Z,19.32
2018-04-26T12:51:44.062Z,19.10
2018-04-26T12:52:44.235Z,18.67
2018-04-26T12:53:44.413Z,18.70
2018-04-26T12:54:44.600Z,18.81
2018-04-26T12:55:44.845Z,19.16
2018-04-26T12:56:44.936Z,19.07
2018-04-26T12:57:45.113Z,19.19
2018-04-26T12:58:45.295Z,19.25
2018-04-26T12:59:45.465Z,19.39
2018-04-26T13:00:45.635Z,19.40
2018-04-26T13:01:45.823Z,19.18